createdAt,value
2022-10-19T00:00:50.913Z,13.35
2022-10-19T00:03:20.762Z,13.40
2022-10-19T00:05:49.774Z,13.44
2022-10-19T00:08:16.355Z,13.38
2022-10-19T00:10:42.974Z,13.32
2022-10-19T00:13:09.571Z,13.42
2022-10-19T00:15:42.964Z,13.40
2022-10-19T00:18:09.690Z,13.42
2022-10-19T00:20:36.988Z,13.31
2022-10-19T00:23:03.907Z,13.28
2022-10-19T00:25:30.505Z,13.29
2022-10-19T00:27:57.087Z,13.23
2022-10-19T00:30:23.681Z,13.28
2022-10-19T00:32:50.235Z,13.28
2022-10-19T00:35:16.809Z,13.28
2022-10-19T00:37:43.408Z,13.29
2022-10-19T00:40:10.333Z,13.37
2022-10-19T00:42:36.972Z,13.39
2022-10-19T00:45:21.701Z,13.28
2022-10-19T00:47:48.291Z,13.18
2022-10-19T00:50:15.285Z,13.14
2022-10-19T00:52:42.524Z,13.09
2022-10-19T00:55:09.790Z,12.98
2022-10-19T00:57:36.652Z,12.97
2022-10-19T01:00:05.824Z,13.02
2022-10-19T01:02:32.795Z,12.93
2022-10-19T01:04:59.780Z,12.99
2022-10-19T01:07:27.832Z,13.00
2022-10-19T01:09:54.776Z,13.04
2022-10-19T01:12:46.027Z,13.10
2022-10-19T01:15:43.369Z,13.14
2022-10-19T01:18:13.092Z,13.12
2022-10-19T01:20:46.661Z,13.06
2022-10-19T01:23:25.843Z,12.98
2022-10-19T01:26:33.049Z,12.96
2022-10-19T01:29:19.069Z,13.00
2022-10-19T01:32:01.102Z,12.86
2022-10-19T01:34:46.483Z,12.80
2022-10-19T01:37:17.293Z,12.80
2022-10-19T01:39:50.036Z,12.75
2022-10-19T01:42:19.507Z,12.74
2022-10-19T01:45:19.900Z,12.82
2022-10-19T01:47:56.182Z,12.81
2022-10-19T01:50:31.520Z,12.72
2022-10-19T01:52:59.310Z,12.71
2022-10-19T01:55:27.084Z,12.66
2022-10-19T01:58:15.537Z,12.66
2022-10-19T02:00:44.362Z,12.67
2022-10-19T02:03:11.981Z,12.70
2022-10-19T02:05:39.296Z,12.74
2022-10-19T02:08:12.590Z,12.72
2022-10-19T02:10:43.036Z,12.73
2022-10-19T02:13:10.780Z,12.78
2022-10-19T02:15:40.100Z,12.74
2022-10-19T02:18:07.439Z,12.71
2022-10-19T02:20:36.560Z,12.75
2022-10-19T02:23:06.812Z,12.77
2022-10-19T02:25:33.955Z,12.72
2022-10-19T02:28:02.374Z,12.68
2022-10-19T02:30:29.094Z,12.72
2022-10-19T02:32:55.708Z,12.66
2022-10-19T02:35:23.065Z,12.48
2022-10-19T02:37:49.768Z,12.54
2022-10-19T02:40:16.554Z,12.62
2022-10-19T02:42:53.389Z,12.63
2022-10-19T02:45:27.933Z,12.64
2022-10-19T02:47:58.865Z,12.59
2022-10-19T02:50:25.741Z,12.46
2022-10-19T02:52:52.495Z,12.49
2022-10-19T02:55:19.287Z,12.46
2022-10-19T02:57:45.889Z,12.54
2022-10-19T03:00:12.682Z,12.57
2022-10-19T03:02:39.243Z,12.63
2022-10-19T03:05:06.197Z,12.60
2022-10-19T03:07:33.089Z,12.63
2022-10-19T03:09:59.927Z,12.61
2022-10-19T03:12:26.504Z,12.64
2022-10-19T03:14:53.114Z,12.68
2022-10-19T03:17:19.761Z,12.65
2022-10-19T03:19:46.469Z,12.65
2022-10-19T03:22:14.972Z,12.72
2022-10-19T03:24:41.609Z,12.63
2022-10-19T03:27:13.225Z,12.54
2022-10-19T03:29:39.808Z,12.48
2022-10-19T03:32:06.445Z,12.48
2022-10-19T03:34:33.060Z,12.46
2022-10-19T03:36:59.693Z,12.44
2022-10-19T03:39:26.545Z,12.50
2022-10-19T03:41:53.228Z,12.57
2022-10-19T03:44:19.823Z,12.40
2022-10-19T03:46:46.387Z,12.34
2022-10-19T03:49:15.067Z,12.29
2022-10-19T03:51:41.812Z,12.28
2022-10-19T03:54:12.999Z,12.15
2022-10-19T03:56:39.629Z,12.17
2022-10-19T03:59:06.737Z,12.16
2022-10-19T04:01:36.577Z,12.10
2022-10-19T04:04:10.987Z,12.09
2022-10-19T04:06:39.926Z,12.12
2022-10-19T04:09:09.100Z,12.01
2022-10-19T04:11:36.439Z,12.04
2022-10-19T04:14:03.260Z,11.92
2022-10-19T04:16:30.939Z,11.95
2022-10-19T04:18:57.861Z,11.94
2022-10-19T04:21:30.096Z,11.86
2022-10-19T04:24:07.177Z,11.89
2022-10-19T04:26:34.452Z,11.90
2022-10-19T04:29:01.561Z,11.92
2022-10-19T04:31:28.813Z,11.94
2022-10-19T04:33:55.796Z,11.84
2022-10-19T04:36:22.516Z,11.98
2022-10-19T04:38:49.264Z,12.04
2022-10-19T04:41:19.389Z,12.04
2022-10-19T04:43:46.698Z,11.95
2022-10-19T04:46:18.477Z,11.89
2022-10-19T04:48:46.712Z,11.93
2022-10-19T04:51:14.377Z,11.94
2022-10-19T04:53:42.145Z,12.01
2022-10-19T04:56:13.592Z,11.95
2022-10-19T04:58:40.181Z,11.90
2022-10-19T05:01:15.726Z,11.79
2022-10-19T05:03:42.292Z,11.73
2022-10-19T05:06:09.533Z,11.66
2022-10-19T05:08:37.058Z,11.63
2022-10-19T05:11:06.315Z,11.45
2022-10-19T05:13:33.259Z,11.48
2022-10-19T05:16:01.127Z,11.51
2022-10-19T05:18:27.817Z,11.55
2022-10-19T05:21:23.576Z,11.34
2022-10-19T05:23:55.377Z,11.28
2022-10-19T05:26:24.459Z,11.33
2022-10-19T05:28:57.229Z,11.22
2022-10-19T05:31:28.319Z,11.12
2022-10-19T05:33:56.448Z,11.18
2022-10-19T05:36:26.342Z,11.15
2022-10-19T05:38:54.764Z,11.25
2022-10-19T05:41:22.061Z,11.29
2022-10-19T05:43:52.987Z,11.17
2022-10-19T05:46:19.637Z,11.27
2022-10-19T05:48:46.732Z,11.18
2022-10-19T05:51:15.711Z,11.17
2022-10-19T05:53:42.404Z,11.19
2022-10-19T05:56:13.455Z,11.39
2022-10-19T05:58:46.117Z,11.37
2022-10-19T06:01:14.116Z,11.42
2022-10-19T06:03:47.950Z,11.53
2022-10-19T06:06:16.884Z,11.49
2022-10-19T06:08:43.528Z,11.51
2022-10-19T06:11:21.225Z,11.37
2022-10-19T06:13:50.554Z,11.50
2022-10-19T06:16:18.931Z,11.37
2022-10-19T06:18:46.027Z,11.48
2022-10-19T06:21:23.800Z,11.39
2022-10-19T06:23:57.716Z,11.37
2022-10-19T06:26:25.399Z,11.52
2022-10-19T06:28:55.365Z,11.49
2022-10-19T06:31:21.999Z,11.48
2022-10-19T06:33:49.806Z,11.50
2022-10-19T06:36:19.567Z,11.52
2022-10-19T06:38:46.412Z,11.55
2022-10-19T06:41:13.478Z,11.50
2022-10-19T06:43:49.543Z,11.41
2022-10-19T06:46:20.384Z,11.47
2022-10-19T06:48:55.745Z,11.56
2022-10-19T06:51:22.779Z,11.63
2022-10-19T06:53:52.822Z,11.60
2022-10-19T06:56:24.765Z,11.67
2022-10-19T06:58:51.590Z,11.70
2022-10-19T07:01:18.514Z,11.85
2022-10-19T07:03:45.424Z,11.96
2022-10-19T07:06:13.269Z,11.94
2022-10-19T07:08:41.158Z,11.89
2022-10-19T07:11:10.525Z,11.87
2022-10-19T07:13:37.762Z,11.70
2022-10-19T07:16:07.532Z,11.80
2022-10-19T07:18:35.604Z,11.81
2022-10-19T07:21:05.626Z,11.83
2022-10-19T07:23:33.403Z,11.87
2022-10-19T07:26:05.443Z,11.94
2022-10-19T07:28:32.130Z,11.94
2022-10-19T07:30:58.723Z,11.87
2022-10-19T07:33:31.009Z,11.89
2022-10-19T07:36:04.980Z,11.85
2022-10-19T07:38:32.214Z,11.90
2022-10-19T07:41:12.819Z,11.89
2022-10-19T07:43:40.357Z,11.87
2022-10-19T07:46:13.222Z,11.93
2022-10-19T07:48:39.908Z,12.02
2022-10-19T07:51:08.443Z,12.03
2022-10-19T07:53:35.783Z,12.06
2022-10-19T07:56:11.286Z,12.10
2022-10-19T07:58:38.065Z,12.10
2022-10-19T08:01:07.173Z,12.10
2022-10-19T08:06:22.363Z,12.21
2022-10-19T08:08:50.358Z,12.31
2022-10-19T08:11:23.366Z,12.32
2022-10-19T08:13:50.284Z,12.49
2022-10-19T08:16:39.454Z,12.32
2022-10-19T08:19:11.286Z,12.51
2022-10-19T08:21:39.103Z,12.53
2022-10-19T08:24:06.772Z,12.62
2022-10-19T08:26:36.626Z,12.70
2022-10-19T08:29:05.779Z,12.68
2022-10-19T08:32:08.547Z,12.74
2022-10-19T08:34:41.885Z,12.79
2022-10-19T08:37:25.907Z,12.72
2022-10-19T08:40:00.624Z,12.85
2022-10-19T08:42:42.831Z,12.94
2022-10-19T08:45:35.877Z,13.04
2022-10-19T08:48:24.462Z,13.11
2022-10-19T08:50:56.154Z,13.16
2022-10-19T08:53:46.820Z,13.29
2022-10-19T08:56:50.420Z,13.26
2022-10-19T08:59:33.116Z,13.28
2022-10-19T09:02:09.842Z,13.34
2022-10-19T09:04:47.927Z,13.33
2022-10-19T09:07:30.465Z,13.28
2022-10-19T09:10:01.746Z,13.36
2022-10-19T09:12:40.656Z,13.49
2022-10-19T09:15:12.518Z,13.50
2022-10-19T09:17:39.119Z,13.57
2022-10-19T09:20:32.944Z,13.68
2022-10-19T09:23:09.794Z,13.67
2022-10-19T09:25:39.503Z,13.74
2022-10-19T09:28:46.351Z,13.82
2022-10-19T09:31:16.351Z,13.82
2022-10-19T09:33:44.378Z,13.84
2022-10-19T09:36:22.343Z,13.95
2022-10-19T09:38:54.255Z,14.01
2022-10-19T09:41:22.744Z,14.01
2022-10-19T09:43:54.610Z,14.12
2022-10-19T09:47:13.732Z,14.06
2022-10-19T09:49:43.241Z,14.03
2022-10-19T09:52:31.660Z,14.15
2022-10-19T09:55:04.703Z,14.26
2022-10-19T09:57:31.853Z,14.33
2022-10-19T09:59:58.750Z,14.41
2022-10-19T10:02:31.284Z,14.50
2022-10-19T10:05:07.099Z,14.60
2022-10-19T10:07:36.782Z,14.72
2022-10-19T10:10:28.172Z,14.82
2022-10-19T10:12:58.915Z,14.90
2022-10-19T10:15:27.639Z,15.14
2022-10-19T10:17:55.836Z,15.30
2022-10-19T10:20:27.892Z,15.41
2022-10-19T10:23:03.632Z,15.67
2022-10-19T10:25:33.455Z,16.51
2022-10-19T10:28:20.945Z,17.84
2022-10-19T10:30:48.461Z,18.69
2022-10-19T10:33:27.039Z,19.26
2022-10-19T10:36:12.782Z,19.98
2022-10-19T10:38:45.829Z,20.31
2022-10-19T10:41:20.314Z,20.72
2022-10-19T10:44:02.165Z,20.81
2022-10-19T10:46:50.706Z,20.80
2022-10-19T10:49:21.953Z,20.57
2022-10-19T10:51:53.051Z,20.30
2022-10-19T10:54:22.147Z,20.42
2022-10-19T10:57:16.671Z,20.65
2022-10-19T10:59:58.898Z,21.43
2022-10-19T11:02:40.747Z,21.52
2022-10-19T11:05:15.658Z,21.95
2022-10-19T11:07:45.683Z,21.77
2022-10-19T11:10:26.993Z,21.77
2022-10-19T11:13:04.766Z,21.96
2022-10-19T11:15:37.583Z,22.21
2022-10-19T11:18:10.221Z,22.10
2022-10-19T11:20:41.963Z,21.92
2022-10-19T11:23:17.599Z,21.49
2022-10-19T11:25:53.510Z,21.37
2022-10-19T11:28:29.242Z,21.21
2022-10-19T11:31:01.889Z,21.31
2022-10-19T11:34:19.385Z,21.07
2022-10-19T11:36:51.845Z,21.74
2022-10-19T11:39:36.221Z,22.20
2022-10-19T11:42:16.516Z,22.17
2022-10-19T11:44:52.300Z,21.76
2022-10-19T11:47:59.829Z,21.66
2022-10-19T11:50:53.804Z,21.05
2022-10-19T11:53:43.915Z,20.47
2022-10-19T11:56:15.147Z,20.04
2022-10-19T11:59:04.383Z,19.91
2022-10-19T12:01:41.407Z,19.69
2022-10-19T12:04:40.412Z,19.71
2022-10-19T12:07:25.400Z,19.75
2022-10-19T12:10:19.121Z,19.66
2022-10-19T12:13:02.121Z,19.61
2022-10-19T12:15:50.118Z,19.48
2022-10-19T12:18:32.682Z,19.60
2022-10-19T12:21:10.474Z,19.45
2022-10-19T12:23:46.890Z,19.30
2022-10-19T12:26:26.036Z,19.13
2022-10-19T12:29:01.211Z,18.89
2022-10-19T12:31:28.618Z,18.67
2022-10-19T12:34:05.681Z,18.70
2022-10-19T12:36:58.731Z,18.78
2022-10-19T12:39:59.929Z,18.73
2022-10-19T12:42:31.233Z,18.45
2022-10-19T12:45:08.659Z,18.69
2022-10-19T12:47:40.316Z,19.04
2022-10-19T12:50:07.531Z,19.28
2022-10-19T12:52:36.339Z,19.41
2022-10-19T12:55:12.548Z,19.52
2022-10-19T12:57:39.973Z,19.74
2022-10-19T13:00:20.744Z,20.02
2022-10-19T13:02:49.088Z,20.09
2022-10-19T13:05:23.016Z,19.89
2022-10-19T13:10:29.290Z,19.63
2022-10-19T13:12:59.342Z,19.81
2022-10-19T13:15:35.306Z,19.88
2022-10-19T13:18:03.008Z,20.10
2022-10-19T13:20:29.590Z,20.08
2022-10-19T13:25:46.233Z,19.93
2022-10-19T13:28:15.683Z,19.87
2022-10-19T13:30:42.335Z,20.07
2022-10-19T13:33:39.674Z,20.35
2022-10-19T13:36:13.133Z,20.48
2022-10-19T13:38:43.936Z,20.62
2022-10-19T13:41:14.869Z,20.64
2022-10-19T13:43:51.446Z,20.72
2022-10-19T13:46:22.307Z,20.87
2022-10-19T13:49:04.128Z,20.59
2022-10-19T13:52:01.763Z,20.26
2022-10-19T13:54:46.612Z,20.04
2022-10-19T13:57:24.185Z,20.16
2022-10-19T14:00:22.270Z,20.09
2022-10-19T14:02:58.342Z,19.67
2022-10-19T14:05:45.606Z,19.64
2022-10-19T14:08:39.638Z,19.60
2022-10-19T14:11:28.064Z,19.74
2022-10-19T14:14:16.527Z,19.75
2022-10-19T14:16:59.813Z,19.56
2022-10-19T14:19:42.841Z,19.50
2022-10-19T14:22:36.319Z,19.65
2022-10-19T14:25:17.986Z,19.62
2022-10-19T14:27:46.434Z,19.49
2022-10-19T14:30:26.621Z,19.55
2022-10-19T14:32:56.801Z,19.60
2022-10-19T14:35:36.013Z,19.56
2022-10-19T14:38:05.274Z,19.35
2022-10-19T14:40:41.699Z,18.99
2022-10-19T14:43:37.698Z,18.86
2022-10-19T14:46:07.387Z,18.75
2022-10-19T14:48:35.713Z,18.72
2022-10-19T14:51:05.583Z,18.51
2022-10-19T14:53:42.304Z,18.36
2022-10-19T14:56:13.616Z,18.33
2022-10-19T14:58:45.342Z,18.29
2022-10-19T15:01:12.459Z,18.14
2022-10-19T15:03:43.595Z,18.21
2022-10-19T15:06:17.851Z,18.27
2022-10-19T15:08:50.129Z,18.31
2022-10-19T15:11:40.132Z,18.39
2022-10-19T15:14:12.039Z,18.46
2022-10-19T15:16:51.767Z,18.42
2022-10-19T15:19:19.734Z,18.31
2022-10-19T15:21:48.602Z,18.22
2022-10-19T15:24:26.561Z,18.13
2022-10-19T15:27:06.580Z,17.93
2022-10-19T15:29:35.528Z,17.97
2022-10-19T15:32:35.451Z,17.98
2022-10-19T15:35:11.992Z,17.94
2022-10-19T15:37:42.463Z,17.89
2022-10-19T15:40:23.367Z,17.75
2022-10-19T15:42:49.976Z,17.72
2022-10-19T15:45:32.109Z,17.61
2022-10-19T15:48:10.905Z,17.59
2022-10-19T15:50:45.900Z,17.55
2022-10-19T15:53:12.508Z,17.55
2022-10-19T15:55:39.119Z,17.45
2022-10-19T15:58:05.769Z,17.36
2022-10-19T16:00:32.724Z,17.24
2022-10-19T16:02:59.334Z,17.20
2022-10-19T16:05:26.079Z,17.18
2022-10-19T16:07:52.679Z,16.97
2022-10-19T16:10:21.916Z,16.92
2022-10-19T16:12:48.629Z,16.85
2022-10-19T16:15:22.510Z,16.80
2022-10-19T16:17:54.827Z,16.76
2022-10-19T16:20:22.084Z,16.73
2022-10-19T16:22:49.258Z,16.74
2022-10-19T16:25:16.402Z,16.70
2022-10-19T16:27:43.153Z,16.61
2022-10-19T16:30:10.434Z,16.53
2022-10-19T16:32:37.670Z,16.54
2022-10-19T16:35:04.684Z,16.38
2022-10-19T16:37:31.331Z,16.28
2022-10-19T16:39:57.982Z,16.18
2022-10-19T16:42:29.696Z,16.23
2022-10-19T16:44:57.463Z,16.20
2022-10-19T16:47:24.158Z,16.17
2022-10-19T16:49:58.070Z,16.08
2022-10-19T16:52:24.694Z,16.13
2022-10-19T16:54:51.289Z,16.07
2022-10-19T16:57:24.033Z,15.95
2022-10-19T17:02:19.734Z,15.99
2022-10-19T17:04:46.578Z,15.98
2022-10-19T17:07:14.110Z,15.97
2022-10-19T17:09:42.166Z,15.93
2022-10-19T17:12:09.747Z,15.73
2022-10-19T17:14:38.126Z,15.63
2022-10-19T17:17:04.785Z,15.50
2022-10-19T17:19:31.776Z,15.47
2022-10-19T17:21:59.581Z,15.54
2022-10-19T17:24:26.379Z,15.50
2022-10-19T17:26:53.427Z,15.42
2022-10-19T17:29:21.300Z,15.44
2022-10-19T17:31:48.174Z,15.37
2022-10-19T17:34:14.871Z,15.29
2022-10-19T17:36:44.895Z,15.01
2022-10-19T17:39:14.511Z,15.17
2022-10-19T17:41:41.312Z,15.24
2022-10-19T17:44:08.066Z,15.20
2022-10-19T17:46:36.728Z,15.25
2022-10-19T17:49:03.932Z,15.23
2022-10-19T17:51:35.501Z,15.22
2022-10-19T17:54:07.990Z,15.17
2022-10-19T17:56:38.559Z,15.16
2022-10-19T17:59:10.896Z,15.18
2022-10-19T18:01:37.631Z,15.22
2022-10-19T18:04:05.143Z,15.10
2022-10-19T18:06:33.717Z,14.88
2022-10-19T18:09:01.675Z,14.85
2022-10-19T18:11:38.688Z,14.97
2022-10-19T18:14:06.635Z,14.90
2022-10-19T18:16:47.528Z,14.89
2022-10-19T18:19:16.057Z,14.97
2022-10-19T18:21:44.283Z,14.96
2022-10-19T18:24:19.348Z,15.01
2022-10-19T18:26:46.678Z,14.92
2022-10-19T18:29:18.259Z,14.81
2022-10-19T18:31:49.252Z,14.77
2022-10-19T18:34:16.242Z,14.78
2022-10-19T18:36:43.164Z,14.83
2022-10-19T18:39:11.611Z,14.75
2022-10-19T18:41:38.999Z,14.69
2022-10-19T18:44:07.174Z,14.74
2022-10-19T18:46:35.752Z,14.75
2022-10-19T18:49:04.969Z,14.78
2022-10-19T18:51:32.161Z,14.65
2022-10-19T18:53:59.105Z,14.73
2022-10-19T18:56:26.435Z,14.68
2022-10-19T18:58:53.028Z,14.57
2022-10-19T19:01:25.142Z,14.60
2022-10-19T19:03:53.585Z,14.60
2022-10-19T19:06:22.232Z,14.55
2022-10-19T19:08:49.238Z,14.52
2022-10-19T19:11:21.028Z,14.49
2022-10-19T19:13:49.801Z,14.46
2022-10-19T19:16:16.526Z,14.31
2022-10-19T19:18:43.438Z,14.23
2022-10-19T19:21:17.436Z,14.28
2022-10-19T19:23:44.916Z,14.35
2022-10-19T19:26:13.062Z,14.41
2022-10-19T19:28:41.793Z,14.42
2022-10-19T19:31:10.742Z,14.41
2022-10-19T19:33:38.059Z,14.33
2022-10-19T19:36:06.072Z,14.25
2022-10-19T19:38:33.256Z,14.28
2022-10-19T19:40:59.912Z,14.21
2022-10-19T19:43:27.987Z,14.18
2022-10-19T19:46:03.109Z,14.10
2022-10-19T19:48:32.888Z,14.17
2022-10-19T19:50:59.609Z,14.07
2022-10-19T19:53:26.224Z,14.00
2022-10-19T19:55:52.863Z,13.90
2022-10-19T19:58:20.106Z,13.88
2022-10-19T20:00:47.118Z,13.84
2022-10-19T20:03:13.909Z,13.75
2022-10-19T20:05:41.104Z,13.77
2022-10-19T20:08:08.345Z,13.77
2022-10-19T20:10:41.231Z,13.81
2022-10-19T20:13:08.174Z,13.86
2022-10-19T20:15:40.953Z,13.86
2022-10-19T20:18:10.202Z,13.74
2022-10-19T20:20:36.869Z,13.74
2022-10-19T20:23:03.508Z,13.69
2022-10-19T20:25:30.140Z,13.56
2022-10-19T20:27:56.913Z,13.53
2022-10-19T20:30:24.161Z,13.68
2022-10-19T20:33:02.169Z,13.72
2022-10-19T20:35:29.424Z,13.69
2022-10-19T20:37:59.958Z,13.71
2022-10-19T20:40:26.902Z,13.67
2022-10-19T20:42:53.573Z,13.56
2022-10-19T20:45:20.163Z,13.51
2022-10-19T20:47:46.758Z,13.53
2022-10-19T20:50:13.588Z,13.43
2022-10-19T20:52:48.997Z,13.25
2022-10-19T20:55:15.789Z,13.28
2022-10-19T20:57:42.522Z,13.29
2022-10-19T21:00:09.913Z,13.27
2022-10-19T21:02:36.815Z,13.23
2022-10-19T21:05:04.011Z,13.30
2022-10-19T21:07:30.846Z,13.26
2022-10-19T21:09:57.574Z,13.28
2022-10-19T21:12:24.255Z,13.22
2022-10-19T21:14:50.857Z,13.32
2022-10-19T21:17:17.509Z,13.30
2022-10-19T21:19:46.895Z,13.29
2022-10-19T21:22:14.026Z,13.27
2022-10-19T21:24:40.693Z,13.29
2022-10-19T21:27:09.301Z,13.29
2022-10-19T21:29:37.049Z,13.11
2022-10-19T21:32:03.891Z,13.01
2022-10-19T21:34:34.200Z,13.05
2022-10-19T21:37:00.931Z,13.06
2022-10-19T21:39:31.564Z,13.09
2022-10-19T21:42:08.214Z,13.03
2022-10-19T21:44:34.908Z,12.98
2022-10-19T21:47:01.564Z,13.11
2022-10-19T21:49:30.803Z,13.04
2022-10-19T21:52:00.929Z,13.03
2022-10-19T21:54:29.581Z,13.09
2022-10-19T21:56:59.889Z,13.01
2022-10-19T21:59:26.834Z,12.88
2022-10-19T22:01:58.370Z,12.81
2022-10-19T22:04:25.464Z,12.85
2022-10-19T22:06:52.176Z,12.80
2022-10-19T22:09:24.949Z,12.81
2022-10-19T22:11:52.057Z,12.76
2022-10-19T22:14:18.780Z,12.77
2022-10-19T22:16:45.637Z,12.79
2022-10-19T22:19:12.775Z,12.68
2022-10-19T22:21:39.713Z,12.70
2022-10-19T22:24:09.236Z,12.65
2022-10-19T22:26:38.501Z,12.67
2022-10-19T22:29:06.699Z,12.76
2022-10-19T22:31:34.206Z,12.68
2022-10-19T22:34:01.977Z,12.50
2022-10-19T22:36:28.626Z,12.34
2022-10-19T22:38:55.350Z,12.41
2022-10-19T22:41:22.015Z,12.52
2022-10-19T22:43:51.192Z,12.46
2022-10-19T22:46:17.842Z,12.39
2022-10-19T22:48:44.620Z,12.43
2022-10-19T22:51:11.277Z,12.52
2022-10-19T22:53:37.936Z,12.60
2022-10-19T22:56:05.538Z,12.47
2022-10-19T22:58:32.222Z,12.42
2022-10-19T23:01:07.773Z,12.49
2022-10-19T23:03:34.537Z,12.36
2022-10-19T23:06:01.345Z,12.26
2022-10-19T23:08:28.201Z,12.14
2022-10-19T23:10:57.818Z,12.13
2022-10-19T23:13:25.035Z,12.20
2022-10-19T23:15:54.616Z,12.13
2022-10-19T23:18:24.637Z,12.08
2022-10-19T23:21:02.401Z,11.86
2022-10-19T23:23:32.306Z,12.00
2022-10-19T23:26:07.498Z,12.02
2022-10-19T23:28:54.161Z,12.10
2022-10-19T23:31:28.108Z,12.24
2022-10-19T23:33:54.794Z,12.15
2022-10-19T23:36:27.112Z,12.15
2022-10-19T23:38:54.967Z,12.04
2022-10-19T23:41:22.566Z,12.09
2022-10-19T23:44:16.374Z,12.14
2022-10-19T23:46:54.917Z,12.15
2022-10-19T23:49:21.647Z,11.95
2022-10-19T23:51:48.319Z,11.78
2022-10-19T23:54:15.555Z,11.90
2022-10-19T23:56:42.109Z,11.83
2022-10-19T23:59:09.791Z,11.77
